createdAt,value
2018-01-17T00:02:25.690Z,43.47
2018-01-17T00:04:53.229Z,48.70
2018-01-17T00:07:20.810Z,43.93
2018-01-17T00:09:49.035Z,44.27
2018-01-17T00:12:16.566Z,42.73
2018-01-17T00:14:44.169Z,36.77
2018-01-17T00:17:11.780Z,44.70
2018-01-17T00:19:39.384Z,48.27
2018-01-17T00:22:06.914Z,44.80
2018-01-17T00:24:34.492Z,38.93
2018-01-17T00:27:02.060Z,45.33
2018-01-17T00:29:29.598Z,39.27
2018-01-17T00:31:57.141Z,42.63
2018-01-17T00:34:24.684Z,41.83
2018-01-17T00:36:52.286Z,43.57
2018-01-17T00:39:19.822Z,41.53
2018-01-17T00:41:47.462Z,42.80
2018-01-17T00:44:14.998Z,47.60
2018-01-17T00:46:42.534Z,51.20
2018-01-17T00:49:10.139Z,44.57
2018-01-17T00:51:37.689Z,45.13
2018-01-17T00:54:05.265Z,49.53
2018-01-17T00:56:32.802Z,43.43
2018-01-17T00:59:00.337Z,48.57
2018-01-17T01:01:27.882Z,54.50
2018-01-17T01:03:55.480Z,49.00
2018-01-17T01:06:23.058Z,45.57
2018-01-17T01:08:50.595Z,48.67
2018-01-17T01:11:18.128Z,55.73
2018-01-17T01:13:45.670Z,61.07
2018-01-17T01:16:13.206Z,48.50
2018-01-17T01:18:40.810Z,63.07
2018-01-17T01:21:08.353Z,55.63
2018-01-17T01:23:36.003Z,59.37
2018-01-17T01:26:03.599Z,66.90
2018-01-17T01:28:31.134Z,66.37
2018-01-17T01:30:58.674Z,62.87
2018-01-17T01:33:26.274Z,60.93
2018-01-17T01:35:53.814Z,61.53
2018-01-17T01:38:21.356Z,61.50
2018-01-17T01:40:48.942Z,64.47
2018-01-17T01:43:16.474Z,53.27
2018-01-17T01:45:44.069Z,60.87
2018-01-17T01:48:11.609Z,57.50
2018-01-17T01:50:39.202Z,66.10
2018-01-17T01:53:06.758Z,68.93
2018-01-17T01:55:34.292Z,69.93
2018-01-17T01:58:01.874Z,65.03
2018-01-17T02:00:29.410Z,68.90
2018-01-17T02:02:57.007Z,65.57
2018-01-17T02:05:24.566Z,61.57
2018-01-17T02:07:52.098Z,60.67
2018-01-17T02:10:19.646Z,63.17
2018-01-17T02:12:47.229Z,56.87
2018-01-17T02:15:14.810Z,58.97
2018-01-17T02:17:42.342Z,65.10
2018-01-17T02:20:09.997Z,69.77
2018-01-17T02:22:37.546Z,76.83
2018-01-17T02:25:05.081Z,77.87
2018-01-17T02:27:32.695Z,69.83
2018-01-17T02:30:00.235Z,75.03
2018-01-17T02:32:27.813Z,79.90
2018-01-17T02:34:55.351Z,70.60
2018-01-17T02:37:22.951Z,61.97
2018-01-17T02:40:02.195Z,59.50
2018-01-17T02:42:29.735Z,58.27
2018-01-17T02:44:57.282Z,67.93
2018-01-17T02:47:24.887Z,74.87
2018-01-17T02:49:52.430Z,63.07
2018-01-17T02:52:19.974Z,66.10
2018-01-17T02:54:48.833Z,67.70
2018-01-17T02:57:16.438Z,78.63
2018-01-17T02:59:45.751Z,65.23
2018-01-17T03:02:13.342Z,72.87
2018-01-17T03:04:40.882Z,86.73
2018-01-17T03:07:08.482Z,79.50
2018-01-17T03:09:36.038Z,86.07
2018-01-17T03:12:03.647Z,109.07
2018-01-17T03:14:31.194Z,75.77
2018-01-17T03:16:58.793Z,81.90
2018-01-17T03:19:26.374Z,70.23
2018-01-17T03:21:53.971Z,66.37
2018-01-17T03:24:21.567Z,62.00
2018-01-17T03:26:49.170Z,62.57
2018-01-17T03:29:16.717Z,57.87
2018-01-17T03:31:44.326Z,66.00
2018-01-17T03:34:11.867Z,64.60
2018-01-17T03:36:39.503Z,58.33
2018-01-17T03:39:07.042Z,64.93
2018-01-17T03:41:34.574Z,71.30
2018-01-17T03:44:02.131Z,58.43
2018-01-17T03:46:29.665Z,72.07
2018-01-17T03:48:57.270Z,72.90
2018-01-17T03:51:24.805Z,63.90
2018-01-17T03:53:52.487Z,66.10
2018-01-17T03:56:20.026Z,61.50
2018-01-17T03:58:47.626Z,70.40
2018-01-17T04:01:15.175Z,58.17
2018-01-17T04:03:42.705Z,61.93
2018-01-17T04:06:10.259Z,62.17
2018-01-17T04:08:37.797Z,66.37
2018-01-17T04:11:05.379Z,62.13
2018-01-17T04:13:32.930Z,82.87
2018-01-17T04:16:00.522Z,88.53
2018-01-17T04:18:28.123Z,76.93
2018-01-17T04:20:55.719Z,69.63
2018-01-17T04:23:23.278Z,65.83
2018-01-17T04:25:51.057Z,75.20
2018-01-17T04:28:18.666Z,90.20
2018-01-17T04:30:46.263Z,77.20
2018-01-17T04:33:13.797Z,69.40
2018-01-17T04:35:41.402Z,73.90
2018-01-17T04:38:08.942Z,79.63
2018-01-17T04:40:36.481Z,85.23
2018-01-17T04:43:04.111Z,77.47
2018-01-17T04:45:31.693Z,64.33
2018-01-17T04:47:59.290Z,72.67
2018-01-17T04:50:26.834Z,150.53
2018-01-17T04:52:54.441Z,111.50
2018-01-17T04:55:22.038Z,108.93
2018-01-17T04:57:49.643Z,110.00
2018-01-17T05:00:17.226Z,101.00
2018-01-17T05:02:44.809Z,101.07
2018-01-17T05:05:12.451Z,121.40
2018-01-17T05:07:39.998Z,122.87
2018-01-17T05:10:07.548Z,123.27
2018-01-17T05:12:35.085Z,145.43
2018-01-17T05:15:02.712Z,145.10
2018-01-17T05:17:30.254Z,124.40
2018-01-17T05:19:57.846Z,130.53
2018-01-17T05:22:25.386Z,129.50
2018-01-17T05:24:53.094Z,142.00
2018-01-17T05:27:20.707Z,135.47
2018-01-17T05:29:48.246Z,136.10
2018-01-17T05:32:15.850Z,179.50
2018-01-17T05:34:43.394Z,162.87
2018-01-17T05:37:11.038Z,142.30
2018-01-17T05:39:38.574Z,167.53
2018-01-17T05:42:06.184Z,158.33
2018-01-17T05:44:33.754Z,151.13
2018-01-17T05:47:01.294Z,172.67
2018-01-17T05:49:28.851Z,190.03
2018-01-17T05:51:56.454Z,161.97
2018-01-17T05:54:24.102Z,167.83
2018-01-17T05:56:51.698Z,165.83
2018-01-17T05:59:19.238Z,155.17
2018-01-17T06:01:46.790Z,168.97
2018-01-17T06:04:14.331Z,178.70
2018-01-17T06:06:41.870Z,201.13
2018-01-17T06:09:09.410Z,181.17
2018-01-17T06:11:36.994Z,158.17
2018-01-17T06:14:04.540Z,167.53
2018-01-17T06:16:32.081Z,152.97
2018-01-17T06:18:59.693Z,153.70
2018-01-17T06:21:27.298Z,147.03
2018-01-17T06:23:54.906Z,142.10
2018-01-17T06:26:22.442Z,163.73
2018-01-17T06:28:50.029Z,161.80
2018-01-17T06:31:17.630Z,209.67
2018-01-17T06:33:45.174Z,209.77
2018-01-17T06:36:12.722Z,203.97
2018-01-17T06:38:40.331Z,206.90
2018-01-17T06:41:07.942Z,178.50
2018-01-17T06:43:35.481Z,137.10
2018-01-17T06:46:03.127Z,129.77
2018-01-17T06:48:30.724Z,153.03
2018-01-17T06:50:58.330Z,155.03
2018-01-17T06:53:25.873Z,149.33
2018-01-17T06:55:53.454Z,118.40
2018-01-17T06:58:21.062Z,127.40
2018-01-17T07:00:48.606Z,132.97
2018-01-17T07:03:16.257Z,129.80
2018-01-17T07:05:43.799Z,133.17
2018-01-17T07:08:11.337Z,137.07
2018-01-17T07:10:38.982Z,130.20
2018-01-17T07:13:06.631Z,132.03
2018-01-17T07:15:34.278Z,131.73
2018-01-17T07:18:01.823Z,130.57
2018-01-17T07:20:29.450Z,127.83
2018-01-17T07:22:56.998Z,138.47
2018-01-17T07:25:24.533Z,142.33
2018-01-17T07:27:52.137Z,139.73
2018-01-17T07:30:19.735Z,139.27
2018-01-17T07:32:47.322Z,127.83
2018-01-17T07:35:14.974Z,97.43
2018-01-17T07:37:42.506Z,132.50
2018-01-17T07:40:10.051Z,99.57
2018-01-17T07:42:37.646Z,108.20
2018-01-17T07:45:05.311Z,104.27
2018-01-17T07:47:32.846Z,116.80
2018-01-17T07:50:00.441Z,96.53
2018-01-17T07:52:27.985Z,87.60
2018-01-17T07:54:55.557Z,96.93
2018-01-17T07:57:23.102Z,87.10
2018-01-17T07:59:50.692Z,78.00
2018-01-17T08:02:18.331Z,81.43
2018-01-17T08:04:45.873Z,60.03
2018-01-17T08:07:13.467Z,63.27
2018-01-17T08:09:41.079Z,75.03
2018-01-17T08:12:08.611Z,73.63
2018-01-17T08:14:36.154Z,62.93
2018-01-17T08:17:03.687Z,62.47
2018-01-17T08:19:31.297Z,51.13
2018-01-17T08:21:58.899Z,64.37
2018-01-17T08:24:26.440Z,66.27
2018-01-17T08:26:54.046Z,76.57
2018-01-17T08:29:21.587Z,79.23
2018-01-17T08:31:49.185Z,76.13
2018-01-17T08:34:16.734Z,58.50
2018-01-17T08:36:44.371Z,55.93
2018-01-17T08:39:11.903Z,62.33
2018-01-17T08:41:39.498Z,61.93
2018-01-17T08:44:07.419Z,59.40
2018-01-17T08:46:34.949Z,71.60
2018-01-17T08:49:02.587Z,70.60
2018-01-17T08:51:30.130Z,71.90
2018-01-17T08:53:57.667Z,74.30
2018-01-17T08:56:25.211Z,64.40
2018-01-17T08:58:52.830Z,57.43
2018-01-17T09:01:20.483Z,63.77
2018-01-17T09:03:48.094Z,61.37
2018-01-17T09:06:15.629Z,51.47
2018-01-17T09:08:43.190Z,56.60
2018-01-17T09:11:10.725Z,48.20
2018-01-17T09:13:38.370Z,49.33
2018-01-17T09:16:05.965Z,54.23
2018-01-17T09:18:33.506Z,44.37
2018-01-17T09:21:01.114Z,53.00
2018-01-17T09:23:28.650Z,52.40
2018-01-17T09:25:56.286Z,50.40
2018-01-17T09:28:23.827Z,39.20
2018-01-17T09:30:51.361Z,41.53
2018-01-17T09:33:18.898Z,39.77
2018-01-17T09:35:46.430Z,42.50
2018-01-17T09:38:14.070Z,40.93
2018-01-17T09:40:41.612Z,41.93
2018-01-17T09:43:09.231Z,37.70
2018-01-17T09:45:36.791Z,40.50
2018-01-17T09:48:04.396Z,43.37
2018-01-17T09:50:32.047Z,65.73
2018-01-17T09:52:59.644Z,47.17
2018-01-17T09:55:27.183Z,45.70
2018-01-17T09:57:54.792Z,34.43
2018-01-17T10:00:22.331Z,43.87
2018-01-17T10:02:49.922Z,46.13
2018-01-17T10:05:17.474Z,59.97
2018-01-17T10:07:45.010Z,67.83
2018-01-17T10:10:12.626Z,36.97
2018-01-17T10:12:40.167Z,32.20
2018-01-17T10:15:07.782Z,30.80
2018-01-17T10:17:35.339Z,42.53
2018-01-17T10:20:02.960Z,30.00
2018-01-17T10:22:30.520Z,35.40
2018-01-17T10:24:58.072Z,34.43
2018-01-17T10:27:25.694Z,34.07
2018-01-17T10:29:53.308Z,32.40
2018-01-17T10:32:20.911Z,28.20
2018-01-17T10:34:48.533Z,19.23
2018-01-17T10:37:16.070Z,20.73
2018-01-17T10:39:43.678Z,11.47
2018-01-17T10:42:11.206Z,7.03
2018-01-17T10:44:38.795Z,8.77
2018-01-17T10:47:06.395Z,8.57
2018-01-17T10:49:33.991Z,6.73
2018-01-17T10:52:01.621Z,9.83
2018-01-17T10:54:29.211Z,10.07
2018-01-17T10:56:56.804Z,4.10
2018-01-17T10:59:24.342Z,5.20
2018-01-17T11:01:51.914Z,5.07
2018-01-17T11:04:19.555Z,6.13
2018-01-17T11:06:47.090Z,5.13
2018-01-17T11:09:14.680Z,8.60
2018-01-17T11:11:42.222Z,8.30
2018-01-17T11:14:09.754Z,6.03
2018-01-17T11:16:37.391Z,6.77
2018-01-17T11:19:04.987Z,3.10
2018-01-17T11:21:32.515Z,5.17
2018-01-17T11:24:00.055Z,8.00
2018-01-17T11:26:27.593Z,7.80
2018-01-17T11:28:55.178Z,9.27
2018-01-17T11:31:22.725Z,9.30
2018-01-17T11:33:50.274Z,5.40
2018-01-17T11:36:17.876Z,6.67
2018-01-17T11:38:45.411Z,5.00
2018-01-17T11:41:12.987Z,3.00
2018-01-17T11:43:40.530Z,8.07
2018-01-17T11:46:08.078Z,4.43
2018-01-17T11:48:35.614Z,7.93
2018-01-17T11:51:03.204Z,8.70
2018-01-17T11:53:30.786Z,6.17
2018-01-17T11:55:58.383Z,6.63
2018-01-17T11:58:25.915Z,5.60
2018-01-17T12:00:53.468Z,7.93
2018-01-17T12:03:20.993Z,9.37
2018-01-17T12:05:48.588Z,133.87
2018-01-17T12:08:16.136Z,19.90
2018-01-17T12:10:43.676Z,19.50
2018-01-17T12:13:11.279Z,10.50
2018-01-17T12:15:38.871Z,6.87
2018-01-17T12:18:06.445Z,5.97
2018-01-17T12:20:34.006Z,7.07
2018-01-17T12:23:01.535Z,9.10
2018-01-17T12:25:29.171Z,12.47
2018-01-17T12:27:56.766Z,9.20
2018-01-17T12:30:24.430Z,10.57
2018-01-17T12:32:51.969Z,14.47
2018-01-17T12:35:19.568Z,22.17
2018-01-17T12:37:47.114Z,15.67
2018-01-17T12:40:14.646Z,18.43
2018-01-17T12:42:42.262Z,16.10
2018-01-17T12:45:09.798Z,22.03
2018-01-17T12:47:37.342Z,22.43
2018-01-17T12:50:04.892Z,25.50
2018-01-17T12:52:32.509Z,31.00
2018-01-17T12:55:00.142Z,21.70
2018-01-17T12:57:27.682Z,22.93
2018-01-17T12:59:55.218Z,16.40
2018-01-17T13:02:22.820Z,12.97
2018-01-17T13:04:50.406Z,14.70
2018-01-17T13:07:18.007Z,9.63
2018-01-17T13:09:45.537Z,10.17
2018-01-17T13:12:13.117Z,9.97
2018-01-17T13:14:40.723Z,7.53
2018-01-17T13:17:08.261Z,11.80
2018-01-17T13:19:35.866Z,14.50
2018-01-17T13:22:03.454Z,29.23
2018-01-17T13:24:31.070Z,19.80
2018-01-17T13:26:58.618Z,37.03
2018-01-17T13:29:26.206Z,7.43
2018-01-17T13:31:53.790Z,9.57
2018-01-17T13:34:21.388Z,16.73
2018-01-17T13:36:48.942Z,15.23
2018-01-17T13:39:16.495Z,10.53
2018-01-17T13:41:44.090Z,8.83
2018-01-17T13:44:11.730Z,15.80
2018-01-17T13:46:39.287Z,18.17
2018-01-17T13:49:06.898Z,11.87
2018-01-17T13:51:34.454Z,12.53
2018-01-17T13:54:02.047Z,10.50
2018-01-17T13:56:29.686Z,8.93
2018-01-17T13:58:57.233Z,8.40
2018-01-17T14:01:24.839Z,8.67
2018-01-17T14:03:52.402Z,16.30
2018-01-17T14:06:19.934Z,9.90
2018-01-17T14:08:47.597Z,12.30
2018-01-17T14:11:15.150Z,11.43
2018-01-17T14:13:42.677Z,12.57
2018-01-17T14:16:10.214Z,19.53
2018-01-17T14:18:37.806Z,15.73
2018-01-17T14:21:05.386Z,15.03
2018-01-17T14:23:32.930Z,15.53
2018-01-17T14:26:00.486Z,18.40
2018-01-17T14:28:28.133Z,18.27
2018-01-17T14:30:55.690Z,27.57
2018-01-17T14:33:23.277Z,17.47
2018-01-17T14:35:50.817Z,19.33
2018-01-17T14:38:18.358Z,12.23
2018-01-17T14:40:45.901Z,15.80
2018-01-17T14:43:16.450Z,14.07
2018-01-17T14:45:44.111Z,12.40
2018-01-17T14:48:11.651Z,10.50
2018-01-17T14:50:39.182Z,19.07
2018-01-17T14:53:06.734Z,14.57
2018-01-17T14:55:34.360Z,25.17
2018-01-17T14:58:02.006Z,32.80
2018-01-17T15:00:29.607Z,17.13
2018-01-17T15:02:57.202Z,13.33
2018-01-17T15:05:24.802Z,16.17
2018-01-17T15:07:52.346Z,23.80
2018-01-17T15:10:19.927Z,21.83
2018-01-17T15:12:47.463Z,14.13
2018-01-17T15:15:14.997Z,15.13
2018-01-17T15:17:42.587Z,25.43
2018-01-17T15:20:10.154Z,9.63
2018-01-17T15:22:37.774Z,14.90
2018-01-17T15:25:05.406Z,13.47
2018-01-17T15:27:32.991Z,13.43
2018-01-17T15:30:00.581Z,14.20
2018-01-17T15:32:28.234Z,16.17
2018-01-17T15:34:55.870Z,16.43
2018-01-17T15:37:24.331Z,18.53
2018-01-17T15:39:51.890Z,21.33
2018-01-17T15:42:19.434Z,19.07
2018-01-17T15:44:47.030Z,19.50
2018-01-17T15:47:14.610Z,19.10
2018-01-17T15:49:42.205Z,21.10
2018-01-17T15:52:09.820Z,49.33
2018-01-17T15:54:37.432Z,18.70
2018-01-17T15:57:05.035Z,16.67
2018-01-17T15:59:32.615Z,14.47
2018-01-17T16:02:00.222Z,17.50
2018-01-17T16:04:27.762Z,18.83
2018-01-17T16:06:55.424Z,16.03
2018-01-17T16:09:22.962Z,20.10
2018-01-17T16:11:50.538Z,15.43
2018-01-17T16:14:18.129Z,12.50
2018-01-17T16:16:45.662Z,10.67
2018-01-17T16:19:13.212Z,12.47
2018-01-17T16:21:40.743Z,14.50
2018-01-17T16:24:08.321Z,17.37
2018-01-17T16:26:35.919Z,14.30
2018-01-17T16:29:03.518Z,16.30
2018-01-17T16:31:31.062Z,19.70
2018-01-17T16:33:58.598Z,20.93
2018-01-17T16:36:26.197Z,16.43
2018-01-17T16:38:53.798Z,16.10
2018-01-17T16:41:21.390Z,12.10
2018-01-17T16:43:48.929Z,12.77
2018-01-17T16:46:16.470Z,17.13
2018-01-17T16:48:44.079Z,15.53
2018-01-17T16:51:11.677Z,12.73
2018-01-17T16:53:39.214Z,11.73
2018-01-17T16:56:06.922Z,11.90
2018-01-17T16:58:34.462Z,14.37
2018-01-17T17:01:02.056Z,19.13
2018-01-17T17:03:29.614Z,33.60
2018-01-17T17:05:57.150Z,31.00
2018-01-17T17:08:24.754Z,26.00
2018-01-17T17:10:52.315Z,400.10
2018-01-17T17:13:20.025Z,32.03
2018-01-17T17:15:47.634Z,19.20
2018-01-17T17:18:15.165Z,16.90
2018-01-17T17:20:42.771Z,23.77
2018-01-17T17:23:10.310Z,19.17
2018-01-17T17:25:37.950Z,18.67
2018-01-17T17:28:05.501Z,17.80
2018-01-17T17:30:33.054Z,16.40
2018-01-17T17:33:00.655Z,15.30
2018-01-17T17:35:28.244Z,13.20
2018-01-17T17:37:55.782Z,17.53
2018-01-17T17:40:23.322Z,23.10
2018-01-17T17:42:50.926Z,21.33
2018-01-17T17:45:18.463Z,14.97
2018-01-17T17:47:46.064Z,23.17
2018-01-17T17:50:13.662Z,15.13
2018-01-17T17:52:41.261Z,12.57
2018-01-17T17:55:08.890Z,12.43
2018-01-17T17:57:36.432Z,12.23
2018-01-17T18:00:04.085Z,15.57
2018-01-17T18:02:31.739Z,11.10
2018-01-17T18:04:59.358Z,14.70
2018-01-17T18:07:26.962Z,7.80
2018-01-17T18:09:54.518Z,13.97
2018-01-17T18:12:22.122Z,14.43
2018-01-17T18:14:49.723Z,11.30
2018-01-17T18:17:17.303Z,24.93
2018-01-17T18:19:44.903Z,14.57
2018-01-17T18:22:12.511Z,21.27
2018-01-17T18:24:40.127Z,27.10
2018-01-17T18:27:07.671Z,17.13
2018-01-17T18:29:35.286Z,18.83
2018-01-17T18:32:02.826Z,16.53
2018-01-17T18:34:30.410Z,17.07
2018-01-17T18:36:57.983Z,17.33
2018-01-17T18:39:25.514Z,16.20
2018-01-17T18:41:53.066Z,18.50
2018-01-17T18:44:20.602Z,15.00
2018-01-17T18:46:48.229Z,20.80
2018-01-17T18:49:15.830Z,12.90
2018-01-17T18:51:43.443Z,24.23
2018-01-17T18:54:11.039Z,14.90
2018-01-17T18:56:38.575Z,22.90
2018-01-17T18:59:06.126Z,15.87
2018-01-17T19:01:33.670Z,11.90
2018-01-17T19:04:01.239Z,17.93
2018-01-17T19:06:28.786Z,18.23
2018-01-17T19:08:56.414Z,19.60
2018-01-17T19:11:23.954Z,22.57
2018-01-17T19:13:51.501Z,34.33
2018-01-17T19:16:19.107Z,27.47
2018-01-17T19:18:46.650Z,23.77
2018-01-17T19:21:14.201Z,38.60
2018-01-17T19:23:41.731Z,56.83
2018-01-17T19:26:09.311Z,51.60
2018-01-17T19:28:36.843Z,57.43
2018-01-17T19:31:04.470Z,56.20
2018-01-17T19:33:32.010Z,53.30
2018-01-17T19:35:59.547Z,58.50
2018-01-17T19:38:27.090Z,73.93
2018-01-17T19:40:54.683Z,88.80
2018-01-17T19:43:22.331Z,69.87
2018-01-17T19:45:49.857Z,59.47
2018-01-17T19:48:18.318Z,70.93
2018-01-17T19:50:45.926Z,79.00
2018-01-17T19:53:13.461Z,80.10
2018-01-17T19:55:41.127Z,79.30
2018-01-17T19:58:08.718Z,73.13
2018-01-17T20:00:36.327Z,68.67
2018-01-17T20:03:03.857Z,70.53
2018-01-17T20:05:31.385Z,67.33
2018-01-17T20:07:58.922Z,69.90
2018-01-17T20:10:26.515Z,70.10
2018-01-17T20:12:54.060Z,74.13
2018-01-17T20:15:21.593Z,65.67
2018-01-17T20:17:49.266Z,55.67
2018-01-17T20:20:16.800Z,56.40
2018-01-17T20:22:49.849Z,65.20
2018-01-17T20:25:17.442Z,56.23
2018-01-17T20:27:45.038Z,54.30
2018-01-17T20:30:12.573Z,45.10
2018-01-17T20:32:40.102Z,44.13
2018-01-17T20:35:07.646Z,48.13
2018-01-17T20:37:35.190Z,42.37
2018-01-17T20:40:02.810Z,35.43
2018-01-17T20:42:30.430Z,33.23
2018-01-17T20:44:58.009Z,30.43
2018-01-17T20:47:25.646Z,38.33
2018-01-17T20:49:53.177Z,23.70
2018-01-17T20:52:20.714Z,35.43
2018-01-17T20:54:48.251Z,41.17
2018-01-17T20:57:15.841Z,31.13
2018-01-17T20:59:43.470Z,24.47
2018-01-17T21:02:11.010Z,37.17
2018-01-17T21:04:38.614Z,31.77
2018-01-17T21:07:06.146Z,23.20
2018-01-17T21:09:33.689Z,18.93
2018-01-17T21:12:01.278Z,18.10
2018-01-17T21:14:28.867Z,10.70
2018-01-17T21:16:56.426Z,14.40
2018-01-17T21:19:23.954Z,8.60
2018-01-17T21:21:51.491Z,11.80
2018-01-17T21:24:19.021Z,7.93
2018-01-17T21:26:46.556Z,8.20
2018-01-17T21:29:14.088Z,10.03
2018-01-17T21:31:41.743Z,11.87
2018-01-17T21:34:09.345Z,11.63
2018-01-17T21:36:36.882Z,9.30
2018-01-17T21:39:04.505Z,9.77
2018-01-17T21:41:32.112Z,9.83
2018-01-17T21:44:05.332Z,9.33
2018-01-17T21:46:32.906Z,9.63
2018-01-17T21:49:00.440Z,9.37
2018-01-17T21:51:27.970Z,13.70
2018-01-17T21:53:55.565Z,11.00
2018-01-17T21:56:23.230Z,12.10
2018-01-17T21:58:50.758Z,9.70
2018-01-17T22:01:18.293Z,8.57
2018-01-17T22:03:45.821Z,6.67
2018-01-17T22:06:13.395Z,9.10
2018-01-17T22:08:40.922Z,8.80
2018-01-17T22:11:08.446Z,6.30
2018-01-17T22:13:36.042Z,4.67
2018-01-17T22:16:03.622Z,7.77
2018-01-17T22:18:31.197Z,6.50
2018-01-17T22:20:58.718Z,7.43
2018-01-17T22:23:26.300Z,9.10
2018-01-17T22:25:53.899Z,5.27
2018-01-17T22:28:21.482Z,6.30
2018-01-17T22:30:49.015Z,6.73
2018-01-17T22:33:16.546Z,4.33
2018-01-17T22:35:44.113Z,1.70
2018-01-17T22:38:11.637Z,3.37
2018-01-17T22:40:39.226Z,2.17
2018-01-17T22:43:06.762Z,4.43
2018-01-17T22:45:34.285Z,3.60
2018-01-17T22:48:01.874Z,1.97
2018-01-17T22:50:29.401Z,4.07
2018-01-17T22:52:56.970Z,4.13
2018-01-17T22:55:24.550Z,2.77
2018-01-17T22:57:52.072Z,2.70
2018-01-17T23:00:20.527Z,4.23
2018-01-17T23:02:48.126Z,1.50
2018-01-17T23:05:15.715Z,3.83
2018-01-17T23:07:43.233Z,5.67
2018-01-17T23:10:10.865Z,3.87
2018-01-17T23:12:38.446Z,3.97
2018-01-17T23:15:05.972Z,1.93
2018-01-17T23:17:33.503Z,1.83
2018-01-17T23:20:01.026Z,2.67
2018-01-17T23:22:28.623Z,4.10
2018-01-17T23:24:56.151Z,2.23
2018-01-17T23:27:23.810Z,3.77
2018-01-17T23:29:51.334Z,3.60
2018-01-17T23:32:18.861Z,5.17
2018-01-17T23:34:46.398Z,1.87
2018-01-17T23:37:13.983Z,3.17
2018-01-17T23:39:41.509Z,2.47
2018-01-17T23:42:09.042Z,3.47
2018-01-17T23:44:36.613Z,3.47
2018-01-17T23:47:04.139Z,5.43
2018-01-17T23:49:31.727Z,4.77
2018-01-17T23:51:59.301Z,2.60
2018-01-17T23:54:26.825Z,3.33
2018-01-17T23:56:54.357Z,3.33
2018-01-17T23:59:22.020Z,2.33
